sensor_id;sensor_type;location;lat;lon;timestamp;P1;durP1;ratioP1;P2;durP2;ratioP2
28003;SDS011;15330;51.234;6.754;2023-04-25T00:00:45;26.77;;;7.13;;
28003;SDS011;15330;51.234;6.754;2023-04-25T00:03:10;23.63;;;7.57;;
28003;SDS011;15330;51.234;6.754;2023-04-25T00:05:36;29.92;;;8.30;;
28003;SDS011;15330;51.234;6.754;2023-04-25T00:08:02;16.52;;;6.53;;
28003;SDS011;15330;51.234;6.754;2023-04-25T00:10:28;26.13;;;7.95;;
28003;SDS011;15330;51.234;6.754;2023-04-25T00:12:53;16.50;;;6.05;;
28003;SDS011;15330;51.234;6.754;2023-04-25T00:15:19;24.40;;;8.02;;
28003;SDS011;15330;51.234;6.754;2023-04-25T00:17:44;21.17;;;7.15;;
28003;SDS011;15330;51.234;6.754;2023-04-25T00:20:10;22.67;;;7.65;;
28003;SDS011;15330;51.234;6.754;2023-04-25T00:22:36;16.58;;;6.65;;
28003;SDS011;15330;51.234;6.754;2023-04-25T00:25:03;16.63;;;5.75;;
28003;SDS011;15330;51.234;6.754;2023-04-25T00:27:30;18.90;;;5.97;;
28003;SDS011;15330;51.234;6.754;2023-04-25T00:29:55;22.77;;;7.13;;
28003;SDS011;15330;51.234;6.754;2023-04-25T00:32:20;23.30;;;7.32;;
28003;SDS011;15330;51.234;6.754;2023-04-25T00:34:46;16.52;;;6.80;;
28003;SDS011;15330;51.234;6.754;2023-04-25T00:37:11;20.23;;;6.45;;
28003;SDS011;15330;51.234;6.754;2023-04-25T00:39:37;19.33;;;5.90;;
28003;SDS011;15330;51.234;6.754;2023-04-25T00:42:03;17.95;;;6.50;;
28003;SDS011;15330;51.234;6.754;2023-04-25T00:44:29;19.85;;;5.47;;
28003;SDS011;15330;51.234;6.754;2023-04-25T00:46:55;19.13;;;6.28;;
28003;SDS011;15330;51.234;6.754;2023-04-25T00:49:20;12.15;;;5.95;;
28003;SDS011;15330;51.234;6.754;2023-04-25T00:51:46;17.83;;;6.57;;
28003;SDS011;15330;51.234;6.754;2023-04-25T00:54:12;22.70;;;6.35;;
28003;SDS011;15330;51.234;6.754;2023-04-25T00:56:37;21.80;;;6.35;;
28003;SDS011;15330;51.234;6.754;2023-04-25T00:59:03;19.55;;;6.75;;
28003;SDS011;15330;51.234;6.754;2023-04-25T01:01:29;19.65;;;6.20;;
28003;SDS011;15330;51.234;6.754;2023-04-25T01:03:56;16.83;;;5.85;;
28003;SDS011;15330;51.234;6.754;2023-04-25T01:06:23;24.73;;;7.20;;
28003;SDS011;15330;51.234;6.754;2023-04-25T01:08:49;21.60;;;10.43;;
28003;SDS011;15330;51.234;6.754;2023-04-25T01:11:16;19.75;;;6.00;;
28003;SDS011;15330;51.234;6.754;2023-04-25T01:13:41;20.73;;;7.80;;
28003;SDS011;15330;51.234;6.754;2023-04-25T01:16:07;22.20;;;6.28;;
28003;SDS011;15330;51.234;6.754;2023-04-25T01:18:32;23.85;;;7.03;;
28003;SDS011;15330;51.234;6.754;2023-04-25T01:21:08;27.75;;;10.45;;
28003;SDS011;15330;51.234;6.754;2023-04-25T01:23:35;22.10;;;6.85;;
28003;SDS011;15330;51.234;6.754;2023-04-25T01:26:01;25.88;;;7.75;;
28003;SDS011;15330;51.234;6.754;2023-04-25T01:28:27;20.67;;;6.25;;
28003;SDS011;15330;51.234;6.754;2023-04-25T01:30:53;19.75;;;8.07;;
28003;SDS011;15330;51.234;6.754;2023-04-25T01:33:20;22.00;;;7.32;;
28003;SDS011;15330;51.234;6.754;2023-04-25T01:35:46;25.35;;;7.45;;
28003;SDS011;15330;51.234;6.754;2023-04-25T01:38:12;19.38;;;6.68;;
28003;SDS011;15330;51.234;6.754;2023-04-25T01:40:38;18.52;;;7.40;;
28003;SDS011;15330;51.234;6.754;2023-04-25T01:43:05;19.15;;;6.53;;
28003;SDS011;15330;51.234;6.754;2023-04-25T01:45:33;22.58;;;7.03;;
28003;SDS011;15330;51.234;6.754;2023-04-25T01:48:01;13.80;;;5.75;;
28003;SDS011;15330;51.234;6.754;2023-04-25T01:50:26;16.50;;;5.70;;
28003;SDS011;15330;51.234;6.754;2023-04-25T01:52:52;23.35;;;7.22;;
28003;SDS011;15330;51.234;6.754;2023-04-25T01:55:18;17.90;;;6.30;;
28003;SDS011;15330;51.234;6.754;2023-04-25T01:57:44;17.83;;;6.22;;
28003;SDS011;15330;51.234;6.754;2023-04-25T02:00:09;17.90;;;6.57;;
28003;SDS011;15330;51.234;6.754;2023-04-25T02:02:35;13.75;;;6.03;;
28003;SDS011;15330;51.234;6.754;2023-04-25T02:05:01;25.33;;;8.32;;
28003;SDS011;15330;51.234;6.754;2023-04-25T02:07:26;19.60;;;6.25;;
28003;SDS011;15330;51.234;6.754;2023-04-25T02:09:52;13.00;;;6.05;;
28003;SDS011;15330;51.234;6.754;2023-04-25T02:12:17;14.77;;;6.07;;
28003;SDS011;15330;51.234;6.754;2023-04-25T02:14:43;17.45;;;6.43;;
28003;SDS011;15330;51.234;6.754;2023-04-25T02:17:08;16.05;;;5.80;;
28003;SDS011;15330;51.234;6.754;2023-04-25T02:19:33;16.50;;;5.75;;
28003;SDS011;15330;51.234;6.754;2023-04-25T02:21:59;18.77;;;5.50;;
28003;SDS011;15330;51.234;6.754;2023-04-25T02:24:24;14.85;;;5.65;;
28003;SDS011;15330;51.234;6.754;2023-04-25T02:26:50;13.38;;;4.63;;
28003;SDS011;15330;51.234;6.754;2023-04-25T02:29:15;25.67;;;10.77;;
28003;SDS011;15330;51.234;6.754;2023-04-25T02:31:41;12.98;;;5.72;;
28003;SDS011;15330;51.234;6.754;2023-04-25T02:34:07;10.48;;;4.93;;
28003;SDS011;15330;51.234;6.754;2023-04-25T02:36:32;15.05;;;5.07;;
28003;SDS011;15330;51.234;6.754;2023-04-25T02:38:59;7.88;;;4.82;;
28003;SDS011;15330;51.234;6.754;2023-04-25T02:41:25;9.70;;;4.68;;
28003;SDS011;15330;51.234;6.754;2023-04-25T02:43:51;12.45;;;5.05;;
28003;SDS011;15330;51.234;6.754;2023-04-25T02:46:17;12.38;;;5.28;;
28003;SDS011;15330;51.234;6.754;2023-04-25T02:48:42;16.08;;;5.47;;
28003;SDS011;15330;51.234;6.754;2023-04-25T02:51:08;13.57;;;5.75;;
28003;SDS011;15330;51.234;6.754;2023-04-25T02:53:33;12.30;;;4.85;;
28003;SDS011;15330;51.234;6.754;2023-04-25T02:55:59;14.30;;;5.13;;
28003;SDS011;15330;51.234;6.754;2023-04-25T02:58:24;12.00;;;5.60;;
28003;SDS011;15330;51.234;6.754;2023-04-25T03:00:50;17.20;;;6.00;;
28003;SDS011;15330;51.234;6.754;2023-04-25T03:03:15;14.98;;;5.75;;
28003;SDS011;15330;51.234;6.754;2023-04-25T03:05:43;16.33;;;5.63;;
28003;SDS011;15330;51.234;6.754;2023-04-25T03:08:08;13.70;;;5.20;;
28003;SDS011;15330;51.234;6.754;2023-04-25T03:10:34;16.30;;;6.05;;
28003;SDS011;15330;51.234;6.754;2023-04-25T03:12:59;18.88;;;6.47;;
28003;SDS011;15330;51.234;6.754;2023-04-25T03:15:25;17.35;;;6.68;;
28003;SDS011;15330;51.234;6.754;2023-04-25T03:17:50;20.33;;;6.00;;
28003;SDS011;15330;51.234;6.754;2023-04-25T03:20:15;14.00;;;5.95;;
28003;SDS011;15330;51.234;6.754;2023-04-25T03:22:41;19.58;;;5.57;;
28003;SDS011;15330;51.234;6.754;2023-04-25T03:25:06;26.30;;;6.85;;
28003;SDS011;15330;51.234;6.754;2023-04-25T03:27:32;19.52;;;6.80;;
28003;SDS011;15330;51.234;6.754;2023-04-25T03:29:58;19.83;;;6.80;;
28003;SDS011;15330;51.234;6.754;2023-04-25T03:32:23;11.48;;;6.30;;
28003;SDS011;15330;51.234;6.754;2023-04-25T03:34:49;16.17;;;6.68;;
28003;SDS011;15330;51.234;6.754;2023-04-25T03:37:14;18.17;;;6.75;;
28003;SDS011;15330;51.234;6.754;2023-04-25T03:39:39;24.23;;;7.70;;
28003;SDS011;15330;51.234;6.754;2023-04-25T03:42:05;18.15;;;6.43;;
28003;SDS011;15330;51.234;6.754;2023-04-25T03:44:30;18.25;;;6.38;;
28003;SDS011;15330;51.234;6.754;2023-04-25T03:46:56;14.68;;;5.97;;
28003;SDS011;15330;51.234;6.754;2023-04-25T03:49:21;21.02;;;6.63;;
28003;SDS011;15330;51.234;6.754;2023-04-25T03:51:46;19.80;;;7.00;;
28003;SDS011;15330;51.234;6.754;2023-04-25T03:54:12;19.77;;;7.38;;
28003;SDS011;15330;51.234;6.754;2023-04-25T03:56:37;19.00;;;6.28;;
28003;SDS011;15330;51.234;6.754;2023-04-25T03:59:03;16.40;;;6.30;;
28003;SDS011;15330;51.234;6.754;2023-04-25T04:01:28;26.65;;;7.25;;
28003;SDS011;15330;51.234;6.754;2023-04-25T04:03:54;26.13;;;7.78;;
28003;SDS011;15330;51.234;6.754;2023-04-25T04:06:19;21.33;;;6.30;;
28003;SDS011;15330;51.234;6.754;2023-04-25T04:08:45;24.52;;;7.53;;
28003;SDS011;15330;51.234;6.754;2023-04-25T04:11:11;23.17;;;7.03;;
28003;SDS011;15330;51.234;6.754;2023-04-25T04:13:36;18.63;;;6.55;;
28003;SDS011;15330;51.234;6.754;2023-04-25T04:16:02;16.48;;;6.07;;
28003;SDS011;15330;51.234;6.754;2023-04-25T04:18:29;15.07;;;5.57;;
28003;SDS011;15330;51.234;6.754;2023-04-25T04:20:54;20.98;;;6.85;;
28003;SDS011;15330;51.234;6.754;2023-04-25T04:23:20;28.80;;;6.38;;
28003;SDS011;15330;51.234;6.754;2023-04-25T04:25:47;23.08;;;6.30;;
28003;SDS011;15330;51.234;6.754;2023-04-25T04:28:13;20.00;;;6.22;;
28003;SDS011;15330;51.234;6.754;2023-04-25T04:30:38;26.63;;;6.78;;
28003;SDS011;15330;51.234;6.754;2023-04-25T04:33:06;20.30;;;6.03;;
28003;SDS011;15330;51.234;6.754;2023-04-25T04:35:32;17.35;;;6.00;;
28003;SDS011;15330;51.234;6.754;2023-04-25T04:37:57;22.92;;;6.45;;
28003;SDS011;15330;51.234;6.754;2023-04-25T04:40:23;23.52;;;6.32;;
28003;SDS011;15330;51.234;6.754;2023-04-25T04:42:48;23.88;;;7.22;;
28003;SDS011;15330;51.234;6.754;2023-04-25T04:45:14;25.02;;;6.75;;
28003;SDS011;15330;51.234;6.754;2023-04-25T04:47:41;19.27;;;6.13;;
28003;SDS011;15330;51.234;6.754;2023-04-25T04:50:07;27.13;;;7.68;;
28003;SDS011;15330;51.234;6.754;2023-04-25T04:52:36;23.00;;;7.10;;
28003;SDS011;15330;51.234;6.754;2023-04-25T04:55:02;25.70;;;6.43;;
28003;SDS011;15330;51.234;6.754;2023-04-25T04:57:29;25.63;;;7.30;;
28003;SDS011;15330;51.234;6.754;2023-04-25T04:59:55;22.30;;;7.25;;
28003;SDS011;15330;51.234;6.754;2023-04-25T05:02:21;36.13;;;13.07;;
28003;SDS011;15330;51.234;6.754;2023-04-25T05:04:46;25.17;;;7.90;;
28003;SDS011;15330;51.234;6.754;2023-04-25T05:07:12;26.17;;;7.18;;
28003;SDS011;15330;51.234;6.754;2023-04-25T05:09:38;28.75;;;9.02;;
28003;SDS011;15330;51.234;6.754;2023-04-25T05:12:04;27.08;;;7.82;;
28003;SDS011;15330;51.234;6.754;2023-04-25T05:14:29;20.83;;;6.35;;
28003;SDS011;15330;51.234;6.754;2023-04-25T05:16:55;29.25;;;7.70;;
28003;SDS011;15330;51.234;6.754;2023-04-25T05:19:20;22.45;;;7.32;;
28003;SDS011;15330;51.234;6.754;2023-04-25T05:21:46;15.57;;;6.45;;
28003;SDS011;15330;51.234;6.754;2023-04-25T05:24:11;28.98;;;9.98;;
28003;SDS011;15330;51.234;6.754;2023-04-25T05:26:37;35.45;;;10.65;;
28003;SDS011;15330;51.234;6.754;2023-04-25T05:29:02;22.48;;;6.30;;
28003;SDS011;15330;51.234;6.754;2023-04-25T05:31:28;27.25;;;6.95;;
28003;SDS011;15330;51.234;6.754;2023-04-25T05:33:53;28.10;;;9.57;;
28003;SDS011;15330;51.234;6.754;2023-04-25T05:36:19;27.77;;;6.80;;
28003;SDS011;15330;51.234;6.754;2023-04-25T05:38:44;24.17;;;7.03;;
28003;SDS011;15330;51.234;6.754;2023-04-25T05:41:10;16.45;;;7.53;;
28003;SDS011;15330;51.234;6.754;2023-04-25T05:43:35;26.33;;;7.68;;
28003;SDS011;15330;51.234;6.754;2023-04-25T05:46:01;20.77;;;6.50;;
28003;SDS011;15330;51.234;6.754;2023-04-25T05:48:26;28.83;;;7.22;;
28003;SDS011;15330;51.234;6.754;2023-04-25T05:50:51;23.73;;;7.05;;
28003;SDS011;15330;51.234;6.754;2023-04-25T05:53:17;23.95;;;7.60;;
28003;SDS011;15330;51.234;6.754;2023-04-25T05:55:43;21.38;;;7.07;;
28003;SDS011;15330;51.234;6.754;2023-04-25T05:58:08;19.13;;;6.03;;
28003;SDS011;15330;51.234;6.754;2023-04-25T06:00:34;17.92;;;5.28;;
28003;SDS011;15330;51.234;6.754;2023-04-25T06:02:59;19.77;;;5.20;;
28003;SDS011;15330;51.234;6.754;2023-04-25T06:05:25;16.63;;;6.03;;
28003;SDS011;15330;51.234;6.754;2023-04-25T06:07:51;14.75;;;5.68;;
28003;SDS011;15330;51.234;6.754;2023-04-25T06:10:16;27.95;;;8.02;;
28003;SDS011;15330;51.234;6.754;2023-04-25T06:12:42;24.10;;;6.82;;
28003;SDS011;15330;51.234;6.754;2023-04-25T06:15:07;17.65;;;5.22;;
28003;SDS011;15330;51.234;6.754;2023-04-25T06:17:33;29.85;;;6.28;;
28003;SDS011;15330;51.234;6.754;2023-04-25T06:19:58;23.85;;;5.88;;
28003;SDS011;15330;51.234;6.754;2023-04-25T06:22:24;19.23;;;5.50;;
28003;SDS011;15330;51.234;6.754;2023-04-25T06:24:49;15.02;;;4.50;;
28003;SDS011;15330;51.234;6.754;2023-04-25T06:27:14;16.42;;;5.25;;
28003;SDS011;15330;51.234;6.754;2023-04-25T06:29:40;10.80;;;3.95;;
28003;SDS011;15330;51.234;6.754;2023-04-25T06:32:05;21.73;;;5.50;;
28003;SDS011;15330;51.234;6.754;2023-04-25T06:34:31;16.90;;;4.88;;
28003;SDS011;15330;51.234;6.754;2023-04-25T06:36:56;23.48;;;5.55;;
28003;SDS011;15330;51.234;6.754;2023-04-25T06:39:21;23.45;;;4.70;;
28003;SDS011;15330;51.234;6.754;2023-04-25T06:41:48;17.42;;;5.32;;
28003;SDS011;15330;51.234;6.754;2023-04-25T06:44:14;17.67;;;5.40;;
28003;SDS011;15330;51.234;6.754;2023-04-25T06:46:40;20.08;;;4.63;;
28003;SDS011;15330;51.234;6.754;2023-04-25T06:49:05;13.73;;;4.10;;
28003;SDS011;15330;51.234;6.754;2023-04-25T06:51:31;12.90;;;3.88;;
28003;SDS011;15330;51.234;6.754;2023-04-25T06:53:56;28.23;;;4.78;;
28003;SDS011;15330;51.234;6.754;2023-04-25T06:56:21;16.33;;;4.97;;
28003;SDS011;15330;51.234;6.754;2023-04-25T06:58:48;13.70;;;3.83;;
28003;SDS011;15330;51.234;6.754;2023-04-25T07:01:13;19.58;;;4.57;;
28003;SDS011;15330;51.234;6.754;2023-04-25T07:03:39;20.10;;;4.60;;
28003;SDS011;15330;51.234;6.754;2023-04-25T07:06:04;17.95;;;4.30;;
28003;SDS011;15330;51.234;6.754;2023-04-25T07:08:30;15.77;;;3.85;;
28003;SDS011;15330;51.234;6.754;2023-04-25T07:10:55;16.92;;;3.95;;
28003;SDS011;15330;51.234;6.754;2023-04-25T07:13:21;15.70;;;3.90;;
28003;SDS011;15330;51.234;6.754;2023-04-25T07:15:46;14.77;;;3.50;;
28003;SDS011;15330;51.234;6.754;2023-04-25T07:18:13;16.27;;;4.22;;
28003;SDS011;15330;51.234;6.754;2023-04-25T07:20:38;15.57;;;3.65;;
28003;SDS011;15330;51.234;6.754;2023-04-25T07:23:04;18.15;;;4.85;;
28003;SDS011;15330;51.234;6.754;2023-04-25T07:25:29;24.77;;;4.93;;
28003;SDS011;15330;51.234;6.754;2023-04-25T07:27:55;13.82;;;3.58;;
28003;SDS011;15330;51.234;6.754;2023-04-25T07:30:21;17.38;;;3.78;;
28003;SDS011;15330;51.234;6.754;2023-04-25T07:32:46;12.15;;;3.30;;
28003;SDS011;15330;51.234;6.754;2023-04-25T07:35:12;17.02;;;3.92;;
28003;SDS011;15330;51.234;6.754;2023-04-25T07:37:37;22.70;;;5.18;;
28003;SDS011;15330;51.234;6.754;2023-04-25T07:40:03;15.77;;;3.85;;
28003;SDS011;15330;51.234;6.754;2023-04-25T07:42:34;16.30;;;4.55;;
28003;SDS011;15330;51.234;6.754;2023-04-25T07:44:59;20.02;;;4.35;;
28003;SDS011;15330;51.234;6.754;2023-04-25T07:47:25;13.57;;;3.88;;
28003;SDS011;15330;51.234;6.754;2023-04-25T07:49:51;15.50;;;5.07;;
28003;SDS011;15330;51.234;6.754;2023-04-25T07:52:16;16.95;;;3.60;;
28003;SDS011;15330;51.234;6.754;2023-04-25T07:54:42;9.52;;;3.30;;
28003;SDS011;15330;51.234;6.754;2023-04-25T07:57:07;20.27;;;4.78;;
28003;SDS011;15330;51.234;6.754;2023-04-25T07:59:33;42.13;;;14.70;;
28003;SDS011;15330;51.234;6.754;2023-04-25T08:01:58;38.38;;;13.52;;
28003;SDS011;15330;51.234;6.754;2023-04-25T08:04:24;13.77;;;3.58;;
28003;SDS011;15330;51.234;6.754;2023-04-25T08:06:50;21.50;;;5.53;;
28003;SDS011;15330;51.234;6.754;2023-04-25T08:09:15;22.63;;;5.22;;
28003;SDS011;15330;51.234;6.754;2023-04-25T08:11:41;16.60;;;3.90;;
28003;SDS011;15330;51.234;6.754;2023-04-25T08:14:07;17.73;;;3.40;;
28003;SDS011;15330;51.234;6.754;2023-04-25T08:16:33;15.25;;;3.53;;
28003;SDS011;15330;51.234;6.754;2023-04-25T08:18:59;11.57;;;2.85;;
28003;SDS011;15330;51.234;6.754;2023-04-25T08:21:24;12.30;;;3.63;;
28003;SDS011;15330;51.234;6.754;2023-04-25T08:23:51;9.55;;;3.20;;
28003;SDS011;15330;51.234;6.754;2023-04-25T08:26:17;14.65;;;4.18;;
28003;SDS011;15330;51.234;6.754;2023-04-25T08:28:42;11.48;;;3.47;;
28003;SDS011;15330;51.234;6.754;2023-04-25T08:31:08;14.48;;;4.45;;
28003;SDS011;15330;51.234;6.754;2023-04-25T08:33:33;28.55;;;10.85;;
28003;SDS011;15330;51.234;6.754;2023-04-25T08:35:59;13.35;;;3.63;;
28003;SDS011;15330;51.234;6.754;2023-04-25T08:38:24;13.23;;;3.70;;
28003;SDS011;15330;51.234;6.754;2023-04-25T08:40:50;16.00;;;3.60;;
28003;SDS011;15330;51.234;6.754;2023-04-25T08:43:19;11.07;;;3.55;;
28003;SDS011;15330;51.234;6.754;2023-04-25T08:45:45;9.98;;;3.40;;
28003;SDS011;15330;51.234;6.754;2023-04-25T08:48:14;16.70;;;3.72;;
28003;SDS011;15330;51.234;6.754;2023-04-25T08:53:21;19.65;;;7.40;;
28003;SDS011;15330;51.234;6.754;2023-04-25T08:55:51;9.30;;;3.10;;
28003;SDS011;15330;51.234;6.754;2023-04-25T08:58:21;8.85;;;2.80;;
28003;SDS011;15330;51.234;6.754;2023-04-25T09:00:47;27.30;;;5.22;;
28003;SDS011;15330;51.234;6.754;2023-04-25T09:03:14;10.43;;;3.30;;
28003;SDS011;15330;51.234;6.754;2023-04-25T09:05:40;10.48;;;2.50;;
28003;SDS011;15330;51.234;6.754;2023-04-25T09:08:06;17.77;;;6.00;;
28003;SDS011;15330;51.234;6.754;2023-04-25T09:10:32;15.35;;;3.97;;
28003;SDS011;15330;51.234;6.754;2023-04-25T09:13:02;10.82;;;4.80;;
28003;SDS011;15330;51.234;6.754;2023-04-25T09:15:31;10.18;;;2.90;;
28003;SDS011;15330;51.234;6.754;2023-04-25T09:17:58;8.77;;;2.78;;
28003;SDS011;15330;51.234;6.754;2023-04-25T09:20:24;11.57;;;2.63;;
28003;SDS011;15330;51.234;6.754;2023-04-25T09:23:11;10.57;;;2.38;;
28003;SDS011;15330;51.234;6.754;2023-04-25T09:25:36;7.93;;;2.88;;
28003;SDS011;15330;51.234;6.754;2023-04-25T09:28:05;12.35;;;3.25;;
28003;SDS011;15330;51.234;6.754;2023-04-25T09:30:32;7.38;;;2.15;;
28003;SDS011;15330;51.234;6.754;2023-04-25T09:33:05;8.68;;;2.30;;
28003;SDS011;15330;51.234;6.754;2023-04-25T09:35:35;12.00;;;2.95;;
28003;SDS011;15330;51.234;6.754;2023-04-25T09:38:20;11.80;;;3.20;;
28003;SDS011;15330;51.234;6.754;2023-04-25T09:40:47;10.85;;;2.35;;
28003;SDS011;15330;51.234;6.754;2023-04-25T09:43:24;6.72;;;2.53;;
28003;SDS011;15330;51.234;6.754;2023-04-25T09:45:51;11.70;;;2.70;;
28003;SDS011;15330;51.234;6.754;2023-04-25T09:48:19;7.00;;;2.55;;
28003;SDS011;15330;51.234;6.754;2023-04-25T09:53:33;6.57;;;2.30;;
28003;SDS011;15330;51.234;6.754;2023-04-25T09:56:00;9.70;;;2.92;;
28003;SDS011;15330;51.234;6.754;2023-04-25T09:58:30;7.22;;;1.85;;
28003;SDS011;15330;51.234;6.754;2023-04-25T10:00:58;6.25;;;2.20;;
28003;SDS011;15330;51.234;6.754;2023-04-25T10:03:25;7.35;;;2.03;;
28003;SDS011;15330;51.234;6.754;2023-04-25T10:05:51;8.27;;;2.05;;
28003;SDS011;15330;51.234;6.754;2023-04-25T10:08:18;10.65;;;1.92;;
28003;SDS011;15330;51.234;6.754;2023-04-25T10:10:45;9.70;;;2.78;;
28003;SDS011;15330;51.234;6.754;2023-04-25T10:13:13;9.32;;;2.80;;
28003;SDS011;15330;51.234;6.754;2023-04-25T10:15:39;9.10;;;1.70;;
28003;SDS011;15330;51.234;6.754;2023-04-25T10:18:06;7.00;;;2.47;;
28003;SDS011;15330;51.234;6.754;2023-04-25T10:20:32;13.52;;;3.47;;
28003;SDS011;15330;51.234;6.754;2023-04-25T10:23:00;11.98;;;3.97;;
28003;SDS011;15330;51.234;6.754;2023-04-25T10:25:32;12.45;;;2.83;;
28003;SDS011;15330;51.234;6.754;2023-04-25T10:27:59;6.80;;;2.30;;
28003;SDS011;15330;51.234;6.754;2023-04-25T10:30:25;16.50;;;3.40;;
28003;SDS011;15330;51.234;6.754;2023-04-25T10:32:51;10.48;;;3.05;;
28003;SDS011;15330;51.234;6.754;2023-04-25T10:35:29;7.30;;;2.53;;
28003;SDS011;15330;51.234;6.754;2023-04-25T10:38:17;9.05;;;2.03;;
28003;SDS011;15330;51.234;6.754;2023-04-25T10:40:41;9.30;;;3.05;;
28003;SDS011;15330;51.234;6.754;2023-04-25T10:46:17;6.65;;;2.30;;
28003;SDS011;15330;51.234;6.754;2023-04-25T10:48:46;4.32;;;1.60;;
28003;SDS011;15330;51.234;6.754;2023-04-25T10:53:46;7.80;;;2.00;;
28003;SDS011;15330;51.234;6.754;2023-04-25T10:56:22;7.30;;;2.00;;
28003;SDS011;15330;51.234;6.754;2023-04-25T10:58:49;17.30;;;6.15;;
28003;SDS011;15330;51.234;6.754;2023-04-25T11:01:15;5.78;;;2.20;;
28003;SDS011;15330;51.234;6.754;2023-04-25T11:03:46;5.82;;;1.92;;
28003;SDS011;15330;51.234;6.754;2023-04-25T11:06:40;13.70;;;1.88;;
28003;SDS011;15330;51.234;6.754;2023-04-25T11:09:12;8.65;;;2.20;;
28003;SDS011;15330;51.234;6.754;2023-04-25T11:11:38;6.45;;;2.28;;
28003;SDS011;15330;51.234;6.754;2023-04-25T11:14:03;7.60;;;2.72;;
28003;SDS011;15330;51.234;6.754;2023-04-25T11:16:29;9.55;;;3.17;;
28003;SDS011;15330;51.234;6.754;2023-04-25T11:18:57;8.90;;;2.60;;
28003;SDS011;15330;51.234;6.754;2023-04-25T11:21:23;11.02;;;2.47;;
28003;SDS011;15330;51.234;6.754;2023-04-25T11:23:48;8.00;;;2.20;;
28003;SDS011;15330;51.234;6.754;2023-04-25T11:26:14;10.80;;;2.65;;
28003;SDS011;15330;51.234;6.754;2023-04-25T11:28:40;14.43;;;4.45;;
28003;SDS011;15330;51.234;6.754;2023-04-25T11:31:05;7.90;;;2.42;;
28003;SDS011;15330;51.234;6.754;2023-04-25T11:33:31;8.10;;;2.00;;
28003;SDS011;15330;51.234;6.754;2023-04-25T11:35:57;5.45;;;1.80;;
28003;SDS011;15330;51.234;6.754;2023-04-25T11:38:23;9.70;;;2.97;;
28003;SDS011;15330;51.234;6.754;2023-04-25T11:40:53;9.48;;;3.33;;
28003;SDS011;15330;51.234;6.754;2023-04-25T11:43:21;10.68;;;2.22;;
28003;SDS011;15330;51.234;6.754;2023-04-25T11:45:48;7.82;;;2.38;;
28003;SDS011;15330;51.234;6.754;2023-04-25T11:48:15;9.95;;;2.53;;
28003;SDS011;15330;51.234;6.754;2023-04-25T11:50:41;5.05;;;2.45;;
28003;SDS011;15330;51.234;6.754;2023-04-25T11:53:06;7.07;;;2.35;;
28003;SDS011;15330;51.234;6.754;2023-04-25T11:55:33;8.90;;;2.33;;
28003;SDS011;15330;51.234;6.754;2023-04-25T11:57:59;9.57;;;2.28;;
28003;SDS011;15330;51.234;6.754;2023-04-25T12:00:25;8.32;;;2.72;;
28003;SDS011;15330;51.234;6.754;2023-04-25T12:02:55;7.35;;;2.33;;
28003;SDS011;15330;51.234;6.754;2023-04-25T12:07:51;8.90;;;2.90;;
28003;SDS011;15330;51.234;6.754;2023-04-25T12:10:17;10.55;;;2.63;;
28003;SDS011;15330;51.234;6.754;2023-04-25T12:12:44;11.85;;;3.03;;
28003;SDS011;15330;51.234;6.754;2023-04-25T12:15:14;12.27;;;2.80;;
28003;SDS011;15330;51.234;6.754;2023-04-25T12:17:44;11.98;;;5.72;;
28003;SDS011;15330;51.234;6.754;2023-04-25T12:20:21;7.13;;;2.45;;
28003;SDS011;15330;51.234;6.754;2023-04-25T12:22:50;17.40;;;4.25;;
28003;SDS011;15330;51.234;6.754;2023-04-25T12:33:28;13.37;;;4.30;;
28003;SDS011;15330;51.234;6.754;2023-04-25T12:35:56;13.82;;;4.05;;
28003;SDS011;15330;51.234;6.754;2023-04-25T12:40:52;11.30;;;3.95;;
28003;SDS011;15330;51.234;6.754;2023-04-25T12:43:18;15.82;;;4.03;;
28003;SDS011;15330;51.234;6.754;2023-04-25T12:45:44;14.23;;;4.57;;
28003;SDS011;15330;51.234;6.754;2023-04-25T12:48:12;10.57;;;4.47;;
28003;SDS011;15330;51.234;6.754;2023-04-25T12:50:38;10.70;;;3.60;;
28003;SDS011;15330;51.234;6.754;2023-04-25T12:53:03;10.48;;;4.18;;
28003;SDS011;15330;51.234;6.754;2023-04-25T12:55:29;18.52;;;6.38;;
28003;SDS011;15330;51.234;6.754;2023-04-25T12:57:54;12.68;;;4.10;;
28003;SDS011;15330;51.234;6.754;2023-04-25T13:00:20;11.18;;;2.80;;
28003;SDS011;15330;51.234;6.754;2023-04-25T13:02:45;10.52;;;2.80;;
28003;SDS011;15330;51.234;6.754;2023-04-25T13:05:14;11.35;;;3.42;;
28003;SDS011;15330;51.234;6.754;2023-04-25T13:07:39;8.13;;;3.10;;
28003;SDS011;15330;51.234;6.754;2023-04-25T13:10:06;13.80;;;3.15;;
28003;SDS011;15330;51.234;6.754;2023-04-25T13:12:32;13.15;;;3.63;;
28003;SDS011;15330;51.234;6.754;2023-04-25T13:14:57;6.45;;;2.47;;
28003;SDS011;15330;51.234;6.754;2023-04-25T13:17:23;5.93;;;2.38;;
28003;SDS011;15330;51.234;6.754;2023-04-25T13:19:48;7.70;;;2.70;;
28003;SDS011;15330;51.234;6.754;2023-04-25T13:22:14;16.90;;;5.35;;
28003;SDS011;15330;51.234;6.754;2023-04-25T13:24:41;6.82;;;2.17;;
28003;SDS011;15330;51.234;6.754;2023-04-25T13:27:07;10.02;;;3.83;;
28003;SDS011;15330;51.234;6.754;2023-04-25T13:29:33;9.93;;;3.38;;
28003;SDS011;15330;51.234;6.754;2023-04-25T13:32:00;8.57;;;2.22;;
28003;SDS011;15330;51.234;6.754;2023-04-25T13:34:26;10.45;;;2.50;;
28003;SDS011;15330;51.234;6.754;2023-04-25T13:36:52;9.80;;;3.42;;
28003;SDS011;15330;51.234;6.754;2023-04-25T13:39:17;11.23;;;4.10;;
28003;SDS011;15330;51.234;6.754;2023-04-25T13:41:43;6.40;;;2.22;;
28003;SDS011;15330;51.234;6.754;2023-04-25T13:44:08;10.50;;;3.88;;
28003;SDS011;15330;51.234;6.754;2023-04-25T13:46:33;8.05;;;2.55;;
28003;SDS011;15330;51.234;6.754;2023-04-25T13:48:59;6.95;;;2.25;;
28003;SDS011;15330;51.234;6.754;2023-04-25T13:51:24;9.32;;;1.65;;
28003;SDS011;15330;51.234;6.754;2023-04-25T13:53:51;6.45;;;1.80;;
28003;SDS011;15330;51.234;6.754;2023-04-25T13:56:17;4.70;;;1.55;;
28003;SDS011;15330;51.234;6.754;2023-04-25T13:58:44;5.53;;;1.45;;
28003;SDS011;15330;51.234;6.754;2023-04-25T14:01:10;11.77;;;4.57;;
28003;SDS011;15330;51.234;6.754;2023-04-25T14:03:35;12.27;;;3.08;;
28003;SDS011;15330;51.234;6.754;2023-04-25T14:06:01;6.55;;;2.30;;
28003;SDS011;15330;51.234;6.754;2023-04-25T14:08:26;8.13;;;2.42;;
28003;SDS011;15330;51.234;6.754;2023-04-25T14:10:52;11.45;;;3.20;;
28003;SDS011;15330;51.234;6.754;2023-04-25T14:13:17;8.18;;;3.10;;
28003;SDS011;15330;51.234;6.754;2023-04-25T14:15:43;5.63;;;2.65;;
28003;SDS011;15330;51.234;6.754;2023-04-25T14:18:09;12.90;;;4.25;;
28003;SDS011;15330;51.234;6.754;2023-04-25T14:20:34;10.30;;;3.17;;
28003;SDS011;15330;51.234;6.754;2023-04-25T14:23:00;5.72;;;1.80;;
28003;SDS011;15330;51.234;6.754;2023-04-25T14:25:25;5.35;;;2.15;;
28003;SDS011;15330;51.234;6.754;2023-04-25T14:27:52;4.35;;;2.17;;
28003;SDS011;15330;51.234;6.754;2023-04-25T14:30:19;9.43;;;3.20;;
28003;SDS011;15330;51.234;6.754;2023-04-25T14:32:45;7.55;;;2.63;;
28003;SDS011;15330;51.234;6.754;2023-04-25T14:35:11;14.05;;;3.78;;
28003;SDS011;15330;51.234;6.754;2023-04-25T14:37:37;13.70;;;4.80;;
28003;SDS011;15330;51.234;6.754;2023-04-25T14:40:02;14.75;;;5.45;;
28003;SDS011;15330;51.234;6.754;2023-04-25T14:42:29;18.73;;;5.85;;
28003;SDS011;15330;51.234;6.754;2023-04-25T14:44:55;13.30;;;4.93;;
28003;SDS011;15330;51.234;6.754;2023-04-25T14:47:20;26.30;;;8.93;;
28003;SDS011;15330;51.234;6.754;2023-04-25T14:49:45;8.63;;;3.35;;
28003;SDS011;15330;51.234;6.754;2023-04-25T14:52:16;7.57;;;2.50;;
28003;SDS011;15330;51.234;6.754;2023-04-25T14:54:41;7.25;;;2.30;;
28003;SDS011;15330;51.234;6.754;2023-04-25T14:57:06;7.03;;;2.53;;